METAR Data
IDs: Format: Raw Decoded Include TAF

Data at: 1457 UTC 27 Nov 2021

EGVN 271420Z 34021G31KT 9999 FEW030 BKN035 04/M02 Q1001 NOSIG RMK BLU BLU